Time;durP1;ratioP1;P1;durP2;ratioP2;P2;SDS_P1;SDS_P2;PMS_P1;PMS_P2;Temp;Humidity;BMP_temperature;BMP_pressure;BME280_temperature;BME280_humidity;BME280_pressure;Samples;Min_cycle;Max_cycle;Signal;HPM_P1;HPM_P2
2022/06/09 00:01:39;;;;;;;15.07;5.25;;;;;;;13.19;100.00;100749.75;4953780;29;20034;-69
2022/06/09 00:04:26;;;;;;;8.55;3.50;;;;;;;13.19;100.00;100745.19;4953582;29;20042;-69
2022/06/09 00:07:05;;;;;;;15.00;5.45;;;;;;;13.20;100.00;100754.84;4953626;29;20031;-69
2022/06/09 00:09:44;;;;;;;14.90;4.53;;;;;;;13.19;100.00;100755.91;4953571;29;20035;-69
2022/06/09 00:12:10;;;;;;;16.10;4.75;;;;;;;13.19;100.00;100750.56;4953526;29;20023;-69
2022/06/09 00:14:37;;;;;;;11.90;5.10;;;;;;;13.16;100.00;100756.34;4953486;29;20676;-69
2022/06/09 00:17:03;;;;;;;8.38;3.65;;;;;;;13.13;100.00;100757.59;4953516;29;20031;-68
2022/06/09 00:19:29;;;;;;;10.75;4.63;;;;;;;13.11;100.00;100753.50;4953417;29;20071;-69
2022/06/09 00:21:54;;;;;;;12.38;4.22;;;;;;;13.11;100.00;100766.88;4953023;28;20114;-69
2022/06/09 00:24:20;;;;;;;13.90;5.07;;;;;;;13.10;100.00;100760.72;4953237;29;20142;-69
2022/06/09 00:26:45;;;;;;;13.55;5.82;;;;;;;13.10;100.00;100760.72;4953147;29;20047;-69
2022/06/09 00:29:12;;;;;;;13.40;4.60;;;;;;;13.11;100.00;100758.84;4953393;29;20480;-69
2022/06/09 00:31:37;;;;;;;11.43;3.55;;;;;;;13.10;100.00;100758.03;4934497;29;20134;-69
2022/06/09 00:34:02;;;;;;;11.02;4.60;;;;;;;13.11;100.00;100756.97;4934825;29;20483;-69
2022/06/09 00:36:29;;;;;;;5.82;3.22;;;;;;;13.12;100.00;100760.47;4934796;29;20086;-69
2022/06/09 00:38:55;;;;;;;16.50;4.18;;;;;;;13.11;100.00;100767.69;4934820;29;20400;-69
2022/06/09 00:41:20;;;;;;;7.18;3.38;;;;;;;13.11;100.00;100756.16;4934669;29;20039;-69
2022/06/09 00:43:46;;;;;;;13.38;4.50;;;;;;;13.10;100.00;100758.03;4934592;29;20050;-68
2022/06/09 00:46:18;;;;;;;8.18;3.75;;;;;;;13.09;100.00;100753.69;4934456;29;20027;-68
2022/06/09 00:49:01;;;;;;;14.60;4.22;;;;;;;13.13;100.00;100768.31;4934575;29;20493;-68
2022/06/09 00:51:42;;;;;;;14.75;3.83;;;;;;;13.12;100.00;100766.66;4935469;29;20031;-68
2022/06/09 00:54:14;;;;;;;10.43;4.20;;;;;;;13.12;100.00;100766.66;4953212;29;20035;-68
2022/06/09 00:56:51;;;;;;;8.40;3.05;;;;;;;13.12;100.00;100763.97;4953105;29;20472;-69
2022/06/09 00:59:19;;;;;;;11.15;4.32;;;;;;;13.12;100.00;100771.19;4953206;29;20032;-69
2022/06/09 01:01:45;;;;;;;11.90;4.07;;;;;;;13.11;100.00;100765.00;4953105;29;20098;-68
2022/06/09 01:04:13;;;;;;;13.57;4.50;;;;;;;13.09;100.00;100771.63;4953018;29;20500;-69
2022/06/09 01:06:48;;;;;;;18.90;5.72;;;;;;;13.07;100.00;100769.19;4952806;29;20027;-69
2022/06/09 01:09:18;;;;;;;15.48;4.22;;;;;;;13.05;100.00;100770.44;4952848;28;20040;-69
2022/06/09 01:11:47;;;;;;;15.30;4.03;;;;;;;13.00;100.00;100771.06;4952909;29;20066;-69
2022/06/09 01:14:16;;;;;;;10.15;4.32;;;;;;;12.97;100.00;100765.28;4952855;29;20027;-69
2022/06/09 01:16:57;;;;;;;13.60;4.60;;;;;;;12.96;100.00;100766.34;4952713;29;20482;-69
2022/06/09 01:19:50;;;;;;;11.25;4.45;;;;;;;12.92;100.00;100771.31;4952756;29;20121;-68
2022/06/09 01:22:40;;;;;;;9.07;4.15;;;;;;;12.83;100.00;100759.19;4952738;29;20127;-68
2022/06/09 01:25:15;;;;;;;10.50;5.15;;;;;;;12.87;100.00;100776.50;4952418;29;20166;-68
2022/06/09 01:27:55;;;;;;;12.40;4.82;;;;;;;12.84;100.00;100771.56;4952402;29;20110;-68
2022/06/09 01:30:30;;;;;;;12.18;4.65;;;;;;;12.80;100.00;100773.81;4952551;29;20039;-68
2022/06/09 01:33:10;;;;;;;19.88;5.05;;;;;;;12.80;100.00;100773.00;4952544;29;20047;-68
2022/06/09 01:35:44;;;;;;;18.38;4.78;;;;;;;12.78;100.00;100780.44;4951521;28;20030;-68
2022/06/09 01:38:10;;;;;;;14.38;4.55;;;;;;;12.75;100.00;100779.00;4952011;29;20066;-68
2022/06/09 01:40:36;;;;;;;12.00;5.13;;;;;;;12.74;100.00;100781.91;4952357;29;20030;-69
2022/06/09 01:43:04;;;;;;;16.77;4.28;;;;;;;12.72;100.00;100787.47;4952342;29;20082;-69
2022/06/09 01:45:51;;;;;;;13.25;4.43;;;;;;;12.72;100.00;100782.09;4952302;29;20046;-69
2022/06/09 01:48:19;;;;;;;8.05;4.25;;;;;;;12.71;100.00;100789.31;4952152;29;20035;-69
2022/06/09 01:51:05;;;;;;;7.75;3.95;;;;;;;12.72;100.00;100793.63;4952057;29;20071;-69
2022/06/09 01:53:37;;;;;;;15.20;5.88;;;;;;;12.70;100.00;100795.69;4951619;28;20110;-68
2022/06/09 01:56:25;;;;;;;15.25;5.85;;;;;;;12.69;100.00;100791.38;4951646;29;20134;-69
2022/06/09 01:58:56;;;;;;;21.20;5.43;;;;;;;12.68;100.00;100791.56;4933178;29;20032;-69
2022/06/09 02:01:28;;;;;;;19.73;5.65;;;;;;;12.68;100.00;100789.75;4932938;29;20035;-69
2022/06/09 02:03:57;;;;;;;15.27;5.47;;;;;;;12.69;100.00;100803.94;4933324;29;20024;-69
2022/06/09 02:06:24;;;;;;;12.85;5.65;;;;;;;12.66;100.00;100797.16;4933021;29;20130;-69
2022/06/09 02:08:50;;;;;;;19.73;6.95;;;;;;;12.69;100.00;100799.41;4933138;29;20027;-69
2022/06/09 02:11:16;;;;;;;19.45;6.60;;;;;;;12.68;100.00;100799.59;4933012;29;20127;-69
2022/06/09 02:13:48;;;;;;;21.85;6.45;;;;;;;12.68;100.00;100813.84;4932993;29;20131;-69
2022/06/09 02:16:18;;;;;;;15.70;5.30;;;;;;;12.68;100.00;100807.63;4932930;29;20481;-69
2022/06/09 02:18:48;;;;;;;12.25;4.70;;;;;;;12.67;100.00;100814.03;4932912;29;20478;-69
2022/06/09 02:21:23;;;;;;;18.27;6.05;;;;;;;12.67;100.00;100816.69;4932715;29;20035;-69
2022/06/09 02:23:48;;;;;;;20.83;6.25;;;;;;;12.66;100.00;100815.06;4932825;29;20039;-69
2022/06/09 02:26:16;;;;;;;18.52;6.05;;;;;;;12.65;100.00;100821.44;4932387;29;20197;-69
2022/06/09 02:28:42;;;;;;;17.10;6.63;;;;;;;12.67;100.00;100822.88;4915767;29;20498;-69
2022/06/09 02:31:07;;;;;;;18.88;5.45;;;;;;;12.67;100.00;100832.75;4932838;29;20122;-68
2022/06/09 02:33:33;;;;;;;16.17;5.55;;;;;;;12.67;100.00;100830.09;4932879;29;20111;-68
2022/06/09 02:35:58;;;;;;;15.98;5.88;;;;;;;12.67;100.00;100827.41;4932624;29;20443;-68
2022/06/09 02:38:24;;;;;;;19.85;5.72;;;;;;;12.66;100.00;100831.94;4932678;29;20442;-68
2022/06/09 02:40:51;;;;;;;15.50;6.60;;;;;;;12.69;100.00;100841.41;4932496;29;20035;-69
2022/06/09 02:43:17;;;;;;;16.90;5.70;;;;;;;12.66;100.00;100839.16;4932259;29;20495;-69
2022/06/09 02:45:43;;;;;;;19.52;5.95;;;;;;;12.65;100.00;100845.53;4932430;29;20042;-69
2022/06/09 02:48:09;;;;;;;16.05;5.25;;;;;;;12.63;100.00;100840.41;4932738;29;20043;-69
2022/06/09 02:50:35;;;;;;;13.15;4.32;;;;;;;12.67;100.00;100854.16;4932508;29;20035;-69
2022/06/09 02:53:01;;;;;;;24.02;7.68;;;;;;;12.67;100.00;100844.28;4945932;29;20051;-69
2022/06/09 02:55:28;;;;;;;17.65;5.65;;;;;;;12.65;100.00;100843.69;4951228;29;20038;-69
2022/06/09 02:57:53;;;;;;;14.68;5.07;;;;;;;12.68;100.00;100850.44;4950066;29;20035;-69
2022/06/09 03:00:19;;;;;;;16.77;6.35;;;;;;;12.67;100.00;100856.84;4951300;29;20391;-69
2022/06/09 03:02:53;;;;;;;18.02;7.05;;;;;;;12.68;100.00;100850.44;4951018;28;20081;-68
2022/06/09 03:05:19;;;;;;;19.80;7.10;;;;;;;12.67;100.00;100854.16;4950936;29;20027;-68
2022/06/09 03:07:44;;;;;;;21.50;6.63;;;;;;;12.66;100.00;100861.38;4951172;29;20031;-68
2022/06/09 03:10:10;;;;;;;17.67;5.93;;;;;;;12.67;100.00;100859.53;4951189;29;20046;-68
2022/06/09 03:12:35;;;;;;;19.25;5.28;;;;;;;12.67;100.00;100859.53;4951165;29;20041;-68
2022/06/09 03:15:02;;;;;;;19.38;6.53;;;;;;;12.65;100.00;100862.41;4951064;29;20470;-68
2022/06/09 03:17:27;;;;;;;14.52;6.45;;;;;;;12.67;100.00;100870.22;4951050;29;20030;-68
2022/06/09 03:19:53;;;;;;;18.67;6.65;;;;;;;12.65;100.00;100875.81;4951017;29;20409;-68
2022/06/09 03:22:18;;;;;;;21.98;6.82;;;;;;;12.64;100.00;100882.16;4950996;29;20031;-68
2022/06/09 03:24:44;;;;;;;24.95;8.52;;;;;;;12.64;100.00;100882.16;4951106;29;20063;-68
2022/06/09 03:27:09;;;;;;;18.27;6.97;;;;;;;12.65;100.00;100893.69;4950594;29;20035;-68
2022/06/09 03:29:35;;;;;;;20.88;6.88;;;;;;;12.65;100.00;100889.19;4950525;29;20039;-68
2022/06/09 03:32:01;;;;;;;21.80;7.63;;;;;;;12.67;100.00;100892.44;4951040;29;20030;-68
2022/06/09 03:34:26;;;;;;;23.08;7.15;;;;;;;12.68;100.00;100901.28;4950343;29;20031;-68
2022/06/09 03:36:52;;;;;;;17.35;6.90;;;;;;;12.68;100.00;100902.13;4949111;29;20039;-69
2022/06/09 03:39:17;;;;;;;26.50;7.63;;;;;;;12.69;100.00;100906.44;4950927;28;20031;-69
2022/06/09 03:41:43;;;;;;;18.70;6.70;;;;;;;12.69;100.00;100916.34;4950845;29;20569;-69
2022/06/09 03:44:08;;;;;;;21.52;7.18;;;;;;;12.69;100.00;100916.34;4950646;29;20031;-69
2022/06/09 03:46:34;;;;;;;16.98;5.55;;;;;;;12.73;100.00;100925.56;4950517;29;20115;-69
2022/06/09 03:49:01;;;;;;;19.50;6.63;;;;;;;12.75;100.00;100917.34;4950703;29;20372;-69
2022/06/09 03:51:26;;;;;;;21.90;7.40;;;;;;;12.72;100.00;100916.72;4950479;28;20106;-69
2022/06/09 03:53:52;;;;;;;17.55;6.90;;;;;;;12.79;100.00;100931.97;4950816;29;20479;-69
2022/06/09 03:56:19;;;;;;;26.50;7.07;;;;;;;12.80;100.00;100926.38;4950677;29;20114;-69
2022/06/09 03:58:45;;;;;;;18.60;6.10;;;;;;;12.81;100.00;100929.88;4953266;28;20130;-69
2022/06/09 04:01:17;;;;;;;21.10;7.28;;;;;;;12.75;100.00;100917.34;4954138;29;20606;-68
2022/06/09 04:03:46;;;;;;;18.63;5.57;;;;;;;12.84;100.00;100945.53;4954499;29;20521;-68
2022/06/09 04:06:14;;;;;;;22.13;6.65;;;;;;;12.82;100.00;100950.28;4953653;29;20143;-69
2022/06/09 04:08:39;;;;;;;17.15;7.43;;;;;;;12.78;100.00;100935.66;4953975;29;20059;-69
2022/06/09 04:11:04;;;;;;;18.55;5.82;;;;;;;12.79;100.00;100956.06;4953993;29;20688;-69
2022/06/09 04:13:30;;;;;;;17.92;5.85;;;;;;;12.77;100.00;100950.91;4953951;29;20046;-69
2022/06/09 04:15:55;;;;;;;19.33;6.53;;;;;;;12.76;100.00;100957.28;4953904;29;20035;-68
2022/06/09 04:18:21;;;;;;;17.23;5.63;;;;;;;12.71;100.00;100955.22;4953841;29;20086;-68
2022/06/09 04:20:46;;;;;;;17.02;6.40;;;;;;;12.68;100.00;100966.38;4953773;29;20122;-69
2022/06/09 04:23:12;;;;;;;19.02;6.57;;;;;;;12.65;100.00;100963.25;4953712;29;20105;-69
2022/06/09 04:25:38;;;;;;;16.60;7.55;;;;;;;12.63;100.00;100963.47;4953678;29;20116;-65
2022/06/09 04:28:04;;;;;;;20.30;7.00;;;;;;;12.63;100.00;100968.03;4953268;29;20062;-65
2022/06/09 04:30:30;;;;;;;19.50;7.82;;;;;;;12.59;100.00;100966.78;4953324;29;20509;-65
2022/06/09 04:32:56;;;;;;;16.10;5.70;;;;;;;12.60;100.00;100965.72;4953529;29;20133;-65
2022/06/09 04:35:21;;;;;;;17.98;6.63;;;;;;;12.58;100.00;100973.97;4953422;29;20228;-65
2022/06/09 04:38:01;;;;;;;24.70;8.48;;;;;;;12.57;100.00;100964.28;4953415;29;20019;-65
2022/06/09 04:40:45;;;;;;;19.65;6.45;;;;;;;12.57;100.00;100976.84;4952084;29;20035;-65
2022/06/09 04:43:11;;;;;;;17.25;7.78;;;;;;;12.56;100.00;100983.25;4953343;29;20055;-65
2022/06/09 04:45:38;;;;;;;16.77;6.55;;;;;;;12.55;100.00;100979.75;4953319;29;20035;-65
2022/06/09 04:48:05;;;;;;;17.33;7.30;;;;;;;12.54;100.00;100983.44;4953012;29;20071;-65
2022/06/09 04:50:31;;;;;;;15.32;6.57;;;;;;;12.55;100.00;100992.28;4953252;29;20035;-65
2022/06/09 04:52:57;;;;;;;23.98;7.97;;;;;;;12.57;100.00;100993.72;4952840;29;20055;-65
2022/06/09 04:55:23;;;;;;;28.95;7.60;;;;;;;12.57;100.00;100991.03;4951913;29;20398;-66
2022/06/09 04:57:48;;;;;;;16.55;7.18;;;;;;;12.59;100.00;100996.19;4952962;29;20039;-66
2022/06/09 05:00:15;;;;;;;11.93;5.65;;;;;;;12.59;100.00;100999.69;4953051;29;20015;-66
2022/06/09 05:02:42;;;;;;;18.40;6.10;;;;;;;12.56;100.00;101007.31;4952813;29;20069;-66
2022/06/09 05:05:10;;;;;;;20.13;7.45;;;;;;;12.60;100.00;101003.19;4952722;29;20038;-66
2022/06/09 05:07:36;;;;;;;16.15;7.82;;;;;;;12.70;100.00;101015.13;4950953;29;20130;-65
2022/06/09 05:10:01;;;;;;;21.33;7.68;;;;;;;12.79;100.00;101018.44;4952806;28;20150;-65
2022/06/09 05:12:27;;;;;;;17.27;7.57;;;;;;;12.88;100.00;101016.34;4952862;29;20494;-65
2022/06/09 05:14:53;;;;;;;21.23;7.43;;;;;;;12.95;100.00;101022.53;4952837;29;20031;-65
2022/06/09 05:17:19;;;;;;;17.63;6.70;;;;;;;13.04;100.00;101037.34;4952721;29;20023;-65
2022/06/09 05:19:45;;;;;;;24.70;8.95;;;;;;;13.09;100.00;101042.06;4952679;29;20031;-65
2022/06/09 05:22:10;;;;;;;20.35;7.75;;;;;;;13.12;100.00;101047.81;4952739;28;20528;-66
2022/06/09 05:24:36;;;;;;;18.15;6.55;;;;;;;13.15;100.00;101038.53;4952603;29;20035;-65
2022/06/09 05:27:01;;;;;;;20.40;9.45;;;;;;;13.16;100.00;101045.56;4952489;29;20062;-65
2022/06/09 05:29:27;;;;;;;17.23;7.40;;;;;;;13.18;100.00;101042.66;4952178;29;20035;-66
2022/06/09 05:31:52;;;;;;;22.45;8.70;;;;;;;13.23;100.00;101050.91;4952265;29;20035;-68
2022/06/09 05:34:17;;;;;;;21.55;8.57;;;;;;;13.32;100.00;101058.53;4952315;29;20435;-68
2022/06/09 05:36:43;;;;;;;17.27;7.25;;;;;;;13.41;100.00;101064.47;4952348;29;20042;-68
2022/06/09 05:44:54;;;;;;;17.08;6.53;;;;;;;13.69;100.00;101072.25;4952565;29;20701;-69
2022/06/09 05:47:21;;;;;;;21.70;7.47;;;;;;;13.76;100.00;101070.38;4952115;29;20423;-69
2022/06/09 05:49:47;;;;;;;19.70;6.95;;;;;;;13.82;100.00;101076.72;4951778;29;20667;-69
2022/06/09 05:52:15;;;;;;;21.52;6.78;;;;;;;13.86;100.00;101077.13;4950548;28;20078;-69
2022/06/09 05:54:41;;;;;;;16.65;6.35;;;;;;;13.82;100.00;101085.59;4952094;29;20101;-69
2022/06/09 05:57:06;;;;;;;14.32;5.32;;;;;;;13.80;100.00;101097.56;4952014;29;20023;-69
2022/06/09 05:59:32;;;;;;;18.42;6.68;;;;;;;13.76;100.00;101094.50;4952138;29;20036;-69
2022/06/09 06:01:57;;;;;;;16.00;5.10;;;;;;;13.70;100.00;101094.50;4951931;29;20162;-69
2022/06/09 06:04:23;;;;;;;14.10;5.45;;;;;;;13.70;100.00;101100.72;4951968;29;20038;-69
2022/06/09 06:06:48;;;;;;;20.38;5.95;;;;;;;13.71;100.00;101107.69;4951314;29;20035;-69
2022/06/09 06:09:21;;;;;;;17.38;6.82;;;;;;;13.74;100.00;101112.63;4951538;29;20046;-69
2022/06/09 06:11:47;;;;;;;15.75;5.97;;;;;;;13.79;100.00;101110.16;4951861;29;20027;-69
2022/06/09 06:14:14;;;;;;;13.38;6.07;;;;;;;13.91;100.00;101117.53;4951744;29;20055;-69
2022/06/09 06:16:40;;;;;;;15.38;6.20;;;;;;;14.05;100.00;101129.03;4951743;29;20035;-69
2022/06/09 06:19:08;;;;;;;18.38;7.38;;;;;;;14.13;100.00;101123.44;4951657;29;20479;-72
2022/06/09 06:21:35;;;;;;;12.80;5.13;;;;;;;14.26;100.00;101131.41;4951047;28;20074;-70
2022/06/09 06:24:01;;;;;;;11.15;4.80;;;;;;;14.30;100.00;101135.31;4951555;29;20031;-69
2022/06/09 06:26:26;;;;;;;14.18;5.45;;;;;;;14.31;100.00;101130.78;4951575;29;20463;-68
2022/06/09 06:28:52;;;;;;;10.68;4.47;;;;;;;14.24;100.00;101139.66;4951531;29;20113;-69
2022/06/09 06:31:18;;;;;;;11.73;5.07;;;;;;;14.24;100.00;101138.84;4951464;29;20041;-69
2022/06/09 06:33:43;;;;;;;11.38;4.65;;;;;;;14.28;100.00;101142.75;4951325;29;20127;-68
2022/06/09 06:36:09;;;;;;;11.52;4.93;;;;;;;14.29;100.00;101147.09;4951293;29;20031;-68
2022/06/09 06:38:35;;;;;;;11.35;5.35;;;;;;;14.29;100.00;101149.75;4951442;29;20443;-68
2022/06/09 06:41:04;;;;;;;11.93;5.00;;;;;;;14.31;100.00;101163.78;4951510;29;20031;-68
2022/06/09 06:43:29;;;;;;;10.23;4.35;;;;;;;14.37;100.00;101164.78;4951433;29;20035;-68
2022/06/09 06:45:54;;;;;;;10.30;4.38;;;;;;;14.37;100.00;101168.28;4951218;29;20042;-68
2022/06/09 06:48:20;;;;;;;7.82;3.28;;;;;;;14.35;100.00;101169.53;4951081;29;20114;-68
2022/06/09 06:50:45;;;;;;;13.45;4.57;;;;;;;14.25;100.00;101173.53;4950341;28;20097;-68
2022/06/09 06:53:12;;;;;;;7.90;3.47;;;;;;;14.25;100.00;101181.56;4950999;29;20062;-68
2022/06/09 06:55:38;;;;;;;8.75;3.38;;;;;;;14.22;100.00;101184.66;4951217;29;20027;-68
2022/06/09 06:58:03;;;;;;;19.73;5.03;;;;;;;14.19;100.00;101184.28;4951274;29;20446;-68
2022/06/09 07:00:29;;;;;;;10.57;4.57;;;;;;;14.17;100.00;101197.06;4951278;29;20039;-68
2022/06/09 07:02:54;;;;;;;10.40;4.05;;;;;;;14.12;100.00;101197.72;4951227;29;20027;-68
2022/06/09 07:05:20;;;;;;;20.80;5.00;;;;;;;14.14;100.00;101198.31;4951233;29;21276;-68
2022/06/09 07:07:46;;;;;;;8.80;3.83;;;;;;;14.01;100.00;101176.91;4950891;29;20454;-68
2022/06/09 07:10:13;;;;;;;10.52;3.75;;;;;;;14.15;100.00;101197.28;4951120;29;20059;-68
2022/06/09 07:12:39;;;;;;;10.15;3.63;;;;;;;14.18;100.00;101206.78;4951206;29;20027;-67
2022/06/09 07:15:06;;;;;;;9.63;4.05;;;;;;;14.19;100.00;101209.22;4951082;29;20086;-67
2022/06/09 07:17:31;;;;;;;12.48;4.90;;;;;;;14.23;100.00;101210.47;4950993;28;20109;-67
2022/06/09 07:19:57;;;;;;;10.77;4.18;;;;;;;14.28;100.00;101212.53;4951047;29;20467;-67
2022/06/09 07:22:22;;;;;;;11.95;4.53;;;;;;;14.34;100.00;101224.25;4951186;29;20038;-67
2022/06/09 07:24:49;;;;;;;11.15;4.35;;;;;;;14.38;100.00;101223.63;4950799;29;20409;-67
2022/06/09 07:27:15;;;;;;;12.35;5.47;;;;;;;14.39;100.00;101236.00;4950817;29;20027;-67
2022/06/09 07:29:41;;;;;;;14.82;5.03;;;;;;;14.40;100.00;101226.09;4950997;29;20039;-67
2022/06/09 07:32:08;;;;;;;12.15;5.00;;;;;;;14.48;100.00;101231.22;4950846;28;20027;-67
2022/06/09 07:34:34;;;;;;;13.02;4.78;;;;;;;14.59;100.00;101232.44;4954694;29;20394;-67
2022/06/09 07:36:59;;;;;;;9.80;5.10;;;;;;;14.68;100.00;101239.22;4954193;29;20046;-67
2022/06/09 07:39:25;;;;;;;12.13;4.65;;;;;;;14.71;97.65;101235.28;4954500;29;20382;-67
2022/06/09 07:41:51;;;;;;;8.90;3.75;;;;;;;14.83;98.61;101242.44;4954503;29;20063;-67
2022/06/09 07:44:17;;;;;;;4.57;2.65;;;;;;;14.92;96.20;101245.69;4954308;29;20035;-67
2022/06/09 07:46:43;;;;;;;5.03;2.50;;;;;;;14.97;94.62;101239.69;4954367;29;20036;-67
2022/06/09 07:49:09;;;;;;;7.25;3.17;;;;;;;15.08;95.18;101244.34;4954469;29;20090;-67
2022/06/09 07:51:35;;;;;;;6.57;3.03;;;;;;;15.24;94.27;101251.06;4954082;28;20039;-67
2022/06/09 07:54:01;;;;;;;4.88;2.33;;;;;;;15.37;93.53;101250.97;4953614;29;20058;-67
2022/06/09 07:56:27;;;;;;;2.85;2.38;;;;;;;15.42;92.37;101245.75;4953861;29;20035;-67
2022/06/09 07:58:53;;;;;;;4.10;2.03;;;;;;;15.47;91.69;101253.16;4953784;29;20038;-67
2022/06/09 08:01:20;;;;;;;2.95;2.00;;;;;;;15.57;91.58;101254.31;4953524;29;20039;-67
2022/06/09 08:03:46;;;;;;;2.45;1.73;;;;;;;15.87;90.96;101250.97;4953696;29;20039;-67
2022/06/09 08:06:13;;;;;;;3.17;2.10;;;;;;;16.46;90.68;101245.16;4953414;29;20031;-67
2022/06/09 08:08:39;;;;;;;3.00;2.10;;;;;;;17.28;85.38;101240.09;4953179;29;20118;-67
2022/06/09 08:11:07;;;;;;;4.40;2.25;;;;;;;17.39;81.39;101260.88;4920346;29;20120;-67
2022/06/09 08:13:33;;;;;;;5.32;2.25;;;;;;;17.13;81.34;101262.09;4918256;29;20039;-67
2022/06/09 08:16:00;;;;;;;9.30;2.28;;;;;;;17.15;83.13;101269.97;4935242;29;20110;-67
2022/06/09 08:18:25;;;;;;;2.03;1.73;;;;;;;17.40;81.97;101265.22;4935343;29;20130;-67
2022/06/09 08:20:51;;;;;;;3.53;2.28;;;;;;;17.59;81.12;101267.81;4935170;29;20028;-68
2022/06/09 08:23:21;;;;;;;3.15;2.05;;;;;;;17.58;78.65;101276.94;4935004;29;20079;-66
2022/06/09 08:25:49;;;;;;;4.20;2.47;;;;;;;17.40;79.66;101272.50;4934923;29;20032;-65
2022/06/09 08:28:18;;;;;;;8.48;2.25;;;;;;;17.38;82.08;101282.69;4934816;29;20087;-65
2022/06/09 08:30:45;;;;;;;2.85;2.00;;;;;;;18.26;75.53;101280.97;4935187;29;20539;-66
2022/06/09 08:33:10;;;;;;;3.85;1.40;;;;;;;19.66;70.70;101286.84;4934528;29;20035;-65
2022/06/09 08:35:36;;;;;;;1.77;0.60;;;;;;;20.26;63.88;101298.88;4934764;29;20042;-65
2022/06/09 08:38:03;;;;;;;1.13;1.08;;;;;;;20.23;62.71;101289.34;4952727;29;20118;-66
2022/06/09 08:40:48;;;;;;;1.00;0.90;;;;;;;20.32;64.76;101303.28;4952994;29;20043;-65
2022/06/09 08:43:34;;;;;;;1.00;1.00;;;;;;;20.26;63.18;101310.53;4952548;28;20023;-65
2022/06/09 08:46:18;;;;;;;1.20;1.10;;;;;;;20.74;63.91;101313.59;4952822;29;20491;-65
2022/06/09 08:48:46;;;;;;;1.08;0.98;;;;;;;21.86;59.72;101308.44;4952874;29;20524;-65
2022/06/09 08:51:17;;;;;;;0.80;0.80;;;;;;;21.96;57.56;101313.13;4952582;29;20042;-65
2022/06/09 08:53:54;;;;;;;0.70;0.70;;;;;;;22.02;61.86;101318.31;4953124;29;20921;-65
2022/06/09 08:56:26;;;;;;;3.22;1.10;;;;;;;21.51;58.65;101330.66;4935914;29;20023;-66
2022/06/09 08:58:56;;;;;;;;;;;;;;;21.10;64.22;101332.97;4953933;29;20038;-66
2022/06/09 09:01:45;;;;;;;2.15;1.00;;;;;;;20.05;63.28;101339.19;4953125;29;19977;-66
2022/06/09 09:04:21;;;;;;;2.88;1.23;;;;;;;19.10;68.10;101337.25;4952440;29;20110;-66
2022/06/09 09:07:08;;;;;;;1.17;1.08;;;;;;;18.40;69.58;101347.19;4952999;29;20027;-66
2022/06/09 09:09:35;;;;;;;2.65;1.27;;;;;;;17.88;68.69;101342.47;4952899;29;20418;-66
2022/06/09 09:12:22;;;;;;;1.70;1.27;;;;;;;17.60;70.61;101356.59;4952786;29;20027;-66
2022/06/09 09:15:36;;;;;;;2.90;2.08;;;;;;;17.45;72.12;101358.91;4952697;29;20549;-65
2022/06/09 09:18:38;;;;;;;6.15;2.20;;;;;;;17.23;73.04;101356.72;4948637;29;20054;-65
2022/06/09 09:21:04;;;;;;;;;;;;;;;17.19;74.27;101366.31;4953117;29;20176;-65
2022/06/09 09:23:46;;;;;;;3.10;2.00;;;;;;;17.02;74.57;101371.50;4952681;29;19918;-65
2022/06/09 09:26:15;;;;;;;5.30;2.60;;;;;;;16.86;76.14;101372.94;4952624;29;20038;-65
2022/06/09 09:28:54;;;;;;;6.45;2.38;;;;;;;16.72;76.87;101370.59;4952510;29;20448;-65
2022/06/09 09:31:50;;;;;;;6.45;3.15;;;;;;;16.52;77.58;101377.00;4952680;29;20023;-65
2022/06/09 09:34:21;;;;;;;3.70;2.38;;;;;;;16.39;79.31;101386.03;4952223;29;20166;-65
2022/06/09 09:36:51;;;;;;;5.22;2.75;;;;;;;16.32;79.92;101379.06;4952361;29;20063;-65
2022/06/09 09:39:30;;;;;;;3.67;2.70;;;;;;;16.34;80.94;101383.19;4952092;29;20027;-66
2022/06/09 09:42:08;;;;;;;4.05;2.03;;;;;;;16.28;79.24;101386.78;4952067;29;20027;-65
2022/06/09 09:44:34;;;;;;;5.18;2.83;;;;;;;16.24;78.85;101387.44;4952241;28;20024;-65
2022/06/09 09:47:01;;;;;;;3.55;2.85;;;;;;;16.19;78.85;101380.88;4952181;29;20376;-66
2022/06/09 09:49:34;;;;;;;9.20;3.25;;;;;;;16.26;79.91;101391.56;4952042;29;20050;-66
2022/06/09 09:52:00;;;;;;;2.20;2.00;;;;;;;16.30;79.32;101397.34;4952190;28;20059;-66
2022/06/09 09:54:26;;;;;;;4.13;1.90;;;;;;;16.32;79.94;101396.06;4951763;28;20042;-65
2022/06/09 09:57:16;;;;;;;4.63;2.70;;;;;;;16.38;79.15;101402.44;4951215;28;20034;-65
2022/06/09 09:59:44;;;;;;;8.00;2.70;;;;;;;16.48;79.94;101402.75;4951925;28;20479;-65
2022/06/09 10:08:38;;;;;;;6.57;3.78;;;;;;;16.77;76.58;101414.72;4951682;29;20054;-65
2022/06/09 10:13:59;;;;;;;2.97;2.42;;;;;;;16.93;78.14;101415.16;4951861;29;20498;-65
2022/06/09 10:16:28;;;;;;;2.65;2.45;;;;;;;16.97;77.05;101416.34;4951839;29;20055;-66
2022/06/09 10:18:59;;;;;;;4.78;2.15;;;;;;;17.03;78.53;101408.19;4951626;29;20471;-66
2022/06/09 10:21:25;;;;;;;4.28;2.80;;;;;;;17.12;75.86;101414.09;4951694;29;20037;-65
2022/06/09 10:24:02;;;;;;;3.28;2.50;;;;;;;17.23;76.72;101409.81;4951841;29;20031;-67
2022/06/09 10:26:39;;;;;;;7.80;2.92;;;;;;;17.38;76.75;101414.81;4951494;29;20859;-66
2022/06/09 10:29:14;;;;;;;5.50;3.38;;;;;;;17.52;76.23;101416.25;4951415;29;20035;-66
2022/06/09 10:31:51;;;;;;;5.80;3.15;;;;;;;17.66;75.67;101420.44;4951544;29;20030;-67
2022/06/09 10:34:56;;;;;;;9.35;3.88;;;;;;;17.74;76.08;101422.78;4951495;29;20031;-67
2022/06/09 10:37:33;;;;;;;10.20;3.90;;;;;;;17.77;75.52;101424.22;4910501;29;20035;-67
2022/06/09 10:40:05;;;;;;;10.73;3.17;;;;;;;17.92;75.19;101421.94;4947396;29;20142;-67
2022/06/09 10:42:40;;;;;;;8.35;3.53;;;;;;;18.11;75.40;101419.97;4950726;29;20108;-66
2022/06/09 10:45:25;;;;;;;7.00;3.75;;;;;;;18.35;73.98;101426.19;4951403;29;20034;-67
2022/06/09 10:57:38;;;;;;;5.43;3.03;;;;;;;19.15;70.77;101426.59;4951063;29;20050;-66
2022/06/09 11:00:13;;;;;;;4.43;3.17;;;;;;;19.24;70.32;101431.41;4950853;29;20031;-67
2022/06/09 11:02:43;;;;;;;6.50;3.13;;;;;;;19.32;69.53;101426.69;4934061;29;20035;-66
2022/06/09 11:05:08;;;;;;;5.00;3.08;;;;;;;19.30;69.86;101423.38;4951221;29;20023;-66
2022/06/09 11:08:06;;;;;;;7.70;3.60;;;;;;;19.17;68.56;101428.00;4953529;28;20046;-67
2022/06/09 11:10:51;;;;;;;5.18;2.88;;;;;;;19.09;71.53;101419.44;4954920;29;20042;-68
2022/06/09 11:13:39;;;;;;;5.57;2.78;;;;;;;19.04;70.90;101428.28;4950662;29;20039;-70
2022/06/09 11:16:17;;;;;;;5.28;2.65;;;;;;;19.35;67.80;101432.41;4950612;29;20015;-67
2022/06/09 11:19:13;;;;;;;3.78;3.05;;;;;;;19.63;66.56;101431.59;4950746;29;20032;-67
2022/06/09 11:22:02;;;;;;;6.63;2.88;;;;;;;19.74;67.14;101429.09;4950817;29;20031;-67
2022/06/09 11:24:46;;;;;;;7.05;3.08;;;;;;;19.62;67.00;101442.66;4950524;29;20142;-67
2022/06/09 11:27:32;;;;;;;4.80;2.85;;;;;;;19.19;66.82;101446.72;4950514;29;20022;-67
2022/06/09 11:30:22;;;;;;;7.80;3.72;;;;;;;18.77;69.86;101453.13;4950847;29;20478;-70
2022/06/09 11:32:54;;;;;;;8.82;3.45;;;;;;;18.49;71.60;101458.38;4950800;29;20149;-69
2022/06/09 11:35:22;;;;;;;7.65;3.10;;;;;;;18.29;70.48;101459.56;4950472;29;20110;-68
2022/06/09 11:38:17;;;;;;;9.50;2.88;;;;;;;18.20;71.82;101460.94;4950488;29;20023;-68
2022/06/09 11:41:11;;;;;;;5.28;2.42;;;;;;;18.10;70.49;101464.22;4950425;28;20114;-68
2022/06/09 11:43:54;;;;;;;10.25;2.88;;;;;;;18.08;70.42;101469.03;4949657;29;20043;-69
2022/06/09 11:46:26;;;;;;;6.63;2.20;;;;;;;18.12;69.39;101472.91;4952219;29;20425;-68
2022/06/09 11:48:57;;;;;;;5.93;2.97;;;;;;;18.19;69.21;101467.41;4954356;29;20554;-67
2022/06/09 11:51:26;;;;;;;5.65;3.35;;;;;;;18.22;68.35;101480.44;4954168;29;20027;-67
2022/06/09 11:53:58;;;;;;;5.95;2.97;;;;;;;18.23;69.71;101468.56;4953813;29;20422;-67